createdAt,value
2022-12-05T00:00:58.934Z,49.30
2022-12-05T00:01:57.943Z,72.30
2022-12-05T00:02:57.925Z,50.80
2022-12-05T00:03:57.920Z,73.30
2022-12-05T00:04:57.869Z,69.20
2022-12-05T00:05:57.844Z,80.60
2022-12-05T00:06:57.821Z,75.40
2022-12-05T00:07:58.896Z,66.20
2022-12-05T00:08:57.800Z,55.70
2022-12-05T00:09:58.102Z,102.60
2022-12-05T00:10:57.758Z,87.20
2022-12-05T00:11:57.946Z,105.90
2022-12-05T00:12:58.760Z,84.60
2022-12-05T00:13:57.727Z,68.80
2022-12-05T00:14:57.696Z,67.70
2022-12-05T00:15:57.681Z,81.70
2022-12-05T00:16:57.720Z,88.70
2022-12-05T00:17:57.671Z,60.60
2022-12-05T00:18:57.634Z,88.40
2022-12-05T00:19:58.009Z,99.60
2022-12-05T00:20:57.609Z,101.60
2022-12-05T00:21:57.585Z,118.80
2022-12-05T00:22:57.587Z,85.70
2022-12-05T00:23:57.542Z,105.30
2022-12-05T00:24:57.530Z,85.70
2022-12-05T00:25:57.508Z,78.10
2022-12-05T00:26:57.503Z,100.90
2022-12-05T00:27:57.509Z,75.50
2022-12-05T00:28:57.464Z,82.40
2022-12-05T00:29:57.758Z,94.90
2022-12-05T00:30:57.434Z,110.20
2022-12-05T00:31:57.449Z,95.50
2022-12-05T00:32:57.431Z,102.30
2022-12-05T00:33:57.374Z,60.20
2022-12-05T00:34:57.364Z,100.90
2022-12-05T00:35:57.340Z,67.20
2022-12-05T00:36:57.324Z,72.20
2022-12-05T00:37:57.331Z,99.80
2022-12-05T00:38:57.291Z,45.20
2022-12-05T00:39:57.599Z,32.40
2022-12-05T00:40:57.246Z,33.20
2022-12-05T00:41:57.239Z,56.30
2022-12-05T00:42:57.254Z,55.20
2022-12-05T00:43:57.208Z,57.00
2022-12-05T00:44:57.179Z,69.20
2022-12-05T00:45:58.227Z,51.60
2022-12-05T00:46:57.145Z,30.50
2022-12-05T00:47:57.166Z,55.10
2022-12-05T00:48:57.113Z,51.90
2022-12-05T00:49:57.268Z,115.70
2022-12-05T00:50:57.077Z,69.30
2022-12-05T00:51:57.060Z,93.10
2022-12-05T00:52:57.073Z,67.00
2022-12-05T00:53:57.035Z,38.90
2022-12-05T00:54:57.010Z,76.90
2022-12-05T00:55:56.990Z,114.00
2022-12-05T00:56:56.994Z,87.20
2022-12-05T00:57:56.995Z,60.20
2022-12-05T00:58:56.957Z,41.10
2022-12-05T00:59:57.061Z,55.00
2022-12-05T01:00:56.944Z,79.40
2022-12-05T01:01:56.932Z,68.60
2022-12-05T01:02:57.058Z,76.50
2022-12-05T01:03:56.860Z,77.40
2022-12-05T01:04:56.846Z,89.50
2022-12-05T01:05:56.824Z,73.30
2022-12-05T01:06:56.817Z,75.60
2022-12-05T01:07:56.897Z,84.00
2022-12-05T01:08:56.794Z,104.00
2022-12-05T01:09:57.073Z,96.90
2022-12-05T01:10:56.744Z,63.10
2022-12-05T01:11:56.738Z,83.20
2022-12-05T01:12:56.750Z,109.40
2022-12-05T01:13:56.694Z,65.20
2022-12-05T01:14:56.675Z,74.80
2022-12-05T01:15:56.654Z,94.20
2022-12-05T01:16:56.704Z,78.30
2022-12-05T01:17:56.649Z,71.50
2022-12-05T01:18:56.601Z,81.40
2022-12-05T01:19:56.769Z,97.50
2022-12-05T01:20:56.578Z,71.10
2022-12-05T01:21:56.552Z,83.10
2022-12-05T01:22:56.565Z,62.90
2022-12-05T01:23:56.520Z,70.60
2022-12-05T01:24:56.512Z,92.20
2022-12-05T01:25:56.486Z,87.20
2022-12-05T01:26:56.479Z,91.50
2022-12-05T01:27:56.483Z,92.00
2022-12-05T01:28:56.509Z,74.90
2022-12-05T01:29:56.600Z,55.40
2022-12-05T01:30:56.398Z,81.20
2022-12-05T01:31:56.454Z,95.20
2022-12-05T01:32:56.397Z,81.80
2022-12-05T01:33:56.345Z,85.80
2022-12-05T01:34:56.329Z,76.90
2022-12-05T01:35:56.310Z,67.70
2022-12-05T01:36:56.294Z,81.10
2022-12-05T01:37:56.305Z,89.20
2022-12-05T01:38:56.255Z,76.00
2022-12-05T01:39:56.563Z,80.10
2022-12-05T01:40:56.225Z,55.30
2022-12-05T01:41:56.220Z,64.70
2022-12-05T01:42:56.226Z,54.80
2022-12-05T01:43:56.191Z,46.70
2022-12-05T01:44:56.159Z,68.40
2022-12-05T01:45:56.226Z,43.60
2022-12-05T01:46:56.137Z,56.30
2022-12-05T01:47:56.156Z,43.20
2022-12-05T01:48:56.093Z,59.40
2022-12-05T01:49:56.422Z,77.40
2022-12-05T01:50:56.059Z,59.60
2022-12-05T01:51:56.058Z,56.00
2022-12-05T01:52:56.051Z,57.60
2022-12-05T01:53:56.007Z,68.90
2022-12-05T01:54:56.004Z,79.40
2022-12-05T01:55:55.979Z,64.60
2022-12-05T01:56:55.967Z,80.10
2022-12-05T01:57:55.986Z,67.40
2022-12-05T01:58:56.916Z,63.50
2022-12-05T01:59:56.237Z,52.50
2022-12-05T02:00:55.935Z,70.40
2022-12-05T02:01:55.913Z,61.20
2022-12-05T02:02:55.927Z,57.70
2022-12-05T02:03:55.838Z,75.70
2022-12-05T02:04:55.821Z,88.50
2022-12-05T02:05:55.797Z,80.30
2022-12-05T02:06:55.794Z,68.90
2022-12-05T02:07:55.846Z,90.20
2022-12-05T02:08:55.743Z,44.90
2022-12-05T02:09:56.028Z,68.90
2022-12-05T02:10:55.712Z,46.30
2022-12-05T02:11:55.704Z,84.40
2022-12-05T02:12:55.722Z,68.50
2022-12-05T02:13:55.674Z,83.60
2022-12-05T02:14:55.635Z,60.90
2022-12-05T02:15:57.173Z,87.00
2022-12-05T02:16:56.648Z,49.90
2022-12-05T02:17:55.614Z,103.90
2022-12-05T02:18:55.569Z,59.50
2022-12-05T02:19:55.861Z,71.70
2022-12-05T02:20:55.541Z,48.80
2022-12-05T02:21:55.533Z,111.70
2022-12-05T02:22:55.529Z,50.10
2022-12-05T02:23:55.487Z,74.70
2022-12-05T02:24:55.473Z,60.30
2022-12-05T02:25:55.452Z,58.40
2022-12-05T02:26:55.428Z,53.80
2022-12-05T02:27:55.439Z,57.70
2022-12-05T02:28:55.398Z,65.90
2022-12-05T02:29:55.760Z,48.10
2022-12-05T02:30:55.450Z,58.40
2022-12-05T02:31:55.390Z,57.70
2022-12-05T02:32:55.360Z,58.10
2022-12-05T02:33:55.310Z,58.00
2022-12-05T02:34:55.304Z,61.70
2022-12-05T02:35:55.274Z,55.80
2022-12-05T02:36:55.267Z,75.10
2022-12-05T02:37:55.275Z,38.60
2022-12-05T02:38:55.232Z,49.70
2022-12-05T02:39:55.258Z,35.20
2022-12-05T02:40:55.193Z,36.90
2022-12-05T02:41:55.176Z,39.90
2022-12-05T02:42:55.198Z,25.90
2022-12-05T02:43:55.148Z,23.70
2022-12-05T02:44:55.121Z,37.00
2022-12-05T02:45:55.192Z,29.50
2022-12-05T02:46:55.090Z,27.90
2022-12-05T02:47:55.104Z,38.20
2022-12-05T02:48:55.061Z,36.80
2022-12-05T02:49:55.303Z,33.70
2022-12-05T02:50:55.015Z,64.70
2022-12-05T02:51:55.013Z,58.10
2022-12-05T02:52:55.031Z,42.70
2022-12-05T02:53:54.972Z,53.60
2022-12-05T02:54:54.947Z,57.10
2022-12-05T02:55:54.934Z,55.40
2022-12-05T02:56:54.916Z,29.30
2022-12-05T02:57:54.921Z,37.10
2022-12-05T02:58:54.873Z,37.90
2022-12-05T02:59:54.976Z,45.30
2022-12-05T03:00:54.897Z,46.50
2022-12-05T03:01:54.898Z,43.40
2022-12-05T03:02:54.836Z,21.40
2022-12-05T03:03:54.816Z,26.50
2022-12-05T03:04:54.795Z,22.10
2022-12-05T03:05:54.760Z,27.10
2022-12-05T03:06:54.747Z,36.00
2022-12-05T03:07:54.794Z,31.30
2022-12-05T03:08:54.711Z,41.30
2022-12-05T03:09:54.756Z,38.60
2022-12-05T03:10:54.682Z,41.90
2022-12-05T03:11:54.649Z,33.10
2022-12-05T03:12:54.665Z,26.00
2022-12-05T03:13:54.613Z,24.00
2022-12-05T03:14:54.605Z,22.60
2022-12-05T03:15:54.586Z,26.60
2022-12-05T03:16:54.617Z,34.20
2022-12-05T03:17:54.579Z,24.40
2022-12-05T03:18:54.532Z,33.40
2022-12-05T03:19:54.512Z,31.70
2022-12-05T03:20:54.502Z,33.60
2022-12-05T03:21:54.470Z,49.20
2022-12-05T03:22:54.479Z,30.70
2022-12-05T03:23:54.442Z,38.60
2022-12-05T03:24:54.419Z,29.00
2022-12-05T03:25:54.405Z,22.60
2022-12-05T03:26:54.384Z,21.20
2022-12-05T03:27:54.397Z,22.20
2022-12-05T03:28:54.351Z,22.90
2022-12-05T03:29:54.331Z,30.20
2022-12-05T03:30:54.344Z,22.70
2022-12-05T03:31:54.312Z,27.10
2022-12-05T03:32:54.319Z,31.60
2022-12-05T03:33:54.284Z,22.20
2022-12-05T03:34:54.245Z,20.90
2022-12-05T03:35:54.248Z,22.80
2022-12-05T03:36:54.215Z,22.70
2022-12-05T03:37:54.209Z,21.20
2022-12-05T03:38:54.205Z,19.00
2022-12-05T03:39:54.169Z,19.80
2022-12-05T03:40:54.163Z,21.00
2022-12-05T03:41:54.129Z,19.20
2022-12-05T03:42:54.130Z,23.40
2022-12-05T03:43:54.133Z,19.20
2022-12-05T03:44:54.071Z,19.50
2022-12-05T03:45:54.139Z,21.80
2022-12-05T03:46:54.089Z,19.70
2022-12-05T03:47:54.016Z,18.70
2022-12-05T03:48:54.043Z,19.80
2022-12-05T03:49:53.983Z,19.20
2022-12-05T03:50:53.984Z,19.10
2022-12-05T03:51:53.968Z,19.60
2022-12-05T03:53:18.627Z,21.50
2022-12-05T03:53:55.949Z,21.00
2022-12-05T03:54:53.905Z,19.20
2022-12-05T03:55:53.892Z,21.90
2022-12-05T03:56:53.873Z,18.50
2022-12-05T03:57:53.857Z,17.90
2022-12-05T03:58:53.881Z,15.90
2022-12-05T03:59:53.836Z,18.20
2022-12-05T04:00:53.797Z,15.70
2022-12-05T04:01:53.833Z,17.10
2022-12-05T04:02:53.760Z,16.30
2022-12-05T04:03:53.844Z,18.00
2022-12-05T04:04:53.722Z,17.60
2022-12-05T04:05:53.723Z,20.60
2022-12-05T04:06:53.691Z,17.70
2022-12-05T04:07:53.738Z,14.20
2022-12-05T04:08:53.689Z,15.70
2022-12-05T04:09:53.650Z,16.60
2022-12-05T04:10:53.627Z,15.20
2022-12-05T04:11:53.616Z,16.70
2022-12-05T04:12:53.596Z,15.10
2022-12-05T04:13:53.612Z,15.70
2022-12-05T04:14:53.577Z,14.60
2022-12-05T04:15:53.600Z,14.60
2022-12-05T04:16:53.521Z,14.00
2022-12-05T04:17:54.056Z,15.40
2022-12-05T04:18:54.532Z,16.40
2022-12-05T04:19:53.475Z,14.20
2022-12-05T04:20:53.463Z,15.20
2022-12-05T04:21:53.445Z,15.40
2022-12-05T04:22:53.445Z,13.60
2022-12-05T04:23:53.449Z,13.80
2022-12-05T04:24:53.387Z,13.50
2022-12-05T04:25:53.360Z,16.10
2022-12-05T04:26:53.360Z,15.00
2022-12-05T04:27:53.329Z,14.20
2022-12-05T04:28:53.343Z,13.90
2022-12-05T04:29:53.297Z,14.40
2022-12-05T04:30:53.331Z,12.50
2022-12-05T04:31:53.259Z,13.90
2022-12-05T04:32:53.255Z,13.30
2022-12-05T04:33:53.261Z,13.70
2022-12-05T04:34:53.207Z,13.60
2022-12-05T04:35:53.207Z,12.90
2022-12-05T04:36:53.186Z,13.60
2022-12-05T04:37:53.189Z,13.50
2022-12-05T04:38:53.184Z,12.70
2022-12-05T04:39:53.139Z,13.20
2022-12-05T04:40:53.107Z,11.90
2022-12-05T04:41:53.099Z,14.00
2022-12-05T04:42:53.073Z,11.90
2022-12-05T04:43:53.095Z,12.30
2022-12-05T04:44:53.042Z,12.40
2022-12-05T04:45:53.025Z,11.20
2022-12-05T04:46:53.078Z,10.20
2022-12-05T04:47:52.996Z,11.70
2022-12-05T04:48:53.002Z,12.50
2022-12-05T04:49:53.974Z,12.70
2022-12-05T04:50:53.944Z,11.60
2022-12-05T04:51:52.935Z,11.90
2022-12-05T04:52:52.935Z,13.20
2022-12-05T04:53:52.920Z,14.40
2022-12-05T04:54:52.859Z,12.70
2022-12-05T04:55:52.842Z,12.70
2022-12-05T04:56:55.631Z,13.10
2022-12-05T04:57:54.813Z,11.60
2022-12-05T04:58:52.825Z,13.60
2022-12-05T04:59:52.785Z,14.00
2022-12-05T05:00:52.773Z,12.70
2022-12-05T05:01:52.808Z,12.00
2022-12-05T05:02:52.796Z,12.90
2022-12-05T05:03:52.745Z,14.10
2022-12-05T05:04:52.698Z,12.90
2022-12-05T05:05:52.674Z,12.30
2022-12-05T05:06:52.663Z,12.80
2022-12-05T05:07:52.730Z,13.10
2022-12-05T05:08:52.651Z,12.90
2022-12-05T05:09:52.601Z,13.50
2022-12-05T05:10:52.592Z,13.90
2022-12-05T05:11:52.579Z,15.90
2022-12-05T05:12:52.564Z,13.30
2022-12-05T05:13:52.600Z,11.60
2022-12-05T05:14:52.518Z,11.00
2022-12-05T05:15:52.606Z,13.50
2022-12-05T05:16:52.489Z,17.20
2022-12-05T05:17:52.476Z,13.80
2022-12-05T05:18:52.492Z,13.00
2022-12-05T05:19:52.436Z,14.00
2022-12-05T05:20:52.512Z,14.10
2022-12-05T05:21:52.401Z,14.50
2022-12-05T05:22:52.388Z,12.10
2022-12-05T05:23:52.418Z,13.60
2022-12-05T05:24:52.386Z,11.50
2022-12-05T05:25:52.332Z,13.40
2022-12-05T05:26:57.062Z,13.70
2022-12-05T05:27:54.307Z,10.80
2022-12-05T05:28:52.321Z,11.80
2022-12-05T05:29:52.275Z,14.00
2022-12-05T05:30:52.342Z,11.60
2022-12-05T05:31:52.234Z,13.30
2022-12-05T05:32:52.224Z,11.80
2022-12-05T05:33:52.230Z,13.90
2022-12-05T05:34:52.180Z,12.60
2022-12-05T05:35:52.383Z,15.20
2022-12-05T05:36:52.236Z,15.10
2022-12-05T05:37:52.131Z,13.30
2022-12-05T05:38:52.159Z,11.70
2022-12-05T05:39:52.093Z,11.90
2022-12-05T05:40:52.073Z,13.40
2022-12-05T05:41:52.056Z,11.10
2022-12-05T05:42:52.044Z,14.70
2022-12-05T05:43:52.050Z,15.30
2022-12-05T05:44:52.006Z,13.60
2022-12-05T05:45:51.996Z,10.90
2022-12-05T05:46:52.127Z,15.40
2022-12-05T05:47:51.961Z,18.10
2022-12-05T05:48:51.982Z,13.30
2022-12-05T05:49:51.932Z,12.20
2022-12-05T05:50:51.940Z,10.50
2022-12-05T05:51:51.891Z,12.20
2022-12-05T05:52:51.893Z,12.60
2022-12-05T05:53:51.880Z,15.90
2022-12-05T05:54:51.834Z,10.60
2022-12-05T05:55:51.815Z,12.90
2022-12-05T05:56:51.791Z,11.60
2022-12-05T05:57:51.785Z,11.10
2022-12-05T05:58:51.791Z,10.90
2022-12-05T05:59:51.739Z,10.20
2022-12-05T06:00:51.799Z,12.80
2022-12-05T06:01:51.714Z,10.20
2022-12-05T06:02:51.771Z,10.40
2022-12-05T06:03:51.881Z,10.90
2022-12-05T06:04:51.674Z,11.70
2022-12-05T06:05:53.207Z,11.50
2022-12-05T06:06:52.624Z,9.90
2022-12-05T06:07:51.627Z,13.50
2022-12-05T06:08:51.626Z,10.00
2022-12-05T06:09:51.603Z,10.80
2022-12-05T06:10:51.563Z,10.20
2022-12-05T06:11:51.549Z,11.30
2022-12-05T06:12:51.524Z,11.40
2022-12-05T06:13:51.537Z,9.90
2022-12-05T06:14:51.497Z,11.90
2022-12-05T06:15:51.499Z,14.10
2022-12-05T06:16:51.528Z,12.00
2022-12-05T06:17:51.453Z,11.80
2022-12-05T06:18:51.457Z,11.20
2022-12-05T06:19:51.429Z,12.10
2022-12-05T06:20:51.384Z,13.80
2022-12-05T06:21:51.388Z,10.60
2022-12-05T06:22:51.352Z,13.90
2022-12-05T06:23:51.339Z,9.60
2022-12-05T06:24:52.396Z,9.60
2022-12-05T06:25:51.302Z,9.50
2022-12-05T06:26:51.288Z,8.80
2022-12-05T06:27:51.272Z,10.30
2022-12-05T06:28:51.251Z,10.10
2022-12-05T06:29:51.310Z,8.90
2022-12-05T06:30:51.229Z,9.80
2022-12-05T06:31:51.274Z,8.60
2022-12-05T06:32:51.192Z,9.40
2022-12-05T06:33:51.168Z,7.90
2022-12-05T06:34:51.177Z,9.40
2022-12-05T06:35:51.135Z,8.70
2022-12-05T06:36:51.125Z,8.80
2022-12-05T06:37:51.091Z,8.50
2022-12-05T06:38:51.091Z,8.00
2022-12-05T06:39:51.095Z,7.90
2022-12-05T06:40:51.210Z,7.90
2022-12-05T06:41:51.025Z,7.50
2022-12-05T06:42:51.007Z,9.30
2022-12-05T06:43:50.987Z,8.10
2022-12-05T06:44:51.020Z,9.40
2022-12-05T06:45:50.987Z,8.70
2022-12-05T06:46:50.942Z,7.70
2022-12-05T06:47:50.915Z,6.90
2022-12-05T06:48:51.911Z,8.80
2022-12-05T06:49:50.913Z,7.00
2022-12-05T06:50:50.871Z,7.70
2022-12-05T06:51:50.857Z,6.60
2022-12-05T06:52:50.839Z,7.00
2022-12-05T06:53:50.845Z,7.00
2022-12-05T06:54:50.841Z,7.20
2022-12-05T06:55:50.807Z,6.20
2022-12-05T06:56:50.775Z,7.90
2022-12-05T06:57:50.753Z,7.30
2022-12-05T06:58:50.783Z,7.00
2022-12-05T06:59:50.745Z,8.00
2022-12-05T07:00:50.757Z,7.50
2022-12-05T07:01:50.899Z,6.50
2022-12-05T07:02:50.727Z,6.50
2022-12-05T07:03:50.645Z,6.50
2022-12-05T07:04:50.677Z,6.90
2022-12-05T07:05:50.647Z,6.50
2022-12-05T07:06:51.342Z,7.20
2022-12-05T07:07:51.665Z,8.00
2022-12-05T07:08:50.574Z,8.40
2022-12-05T07:09:50.585Z,7.80
2022-12-05T07:10:50.531Z,7.80
2022-12-05T07:11:50.509Z,8.30
2022-12-05T07:12:50.493Z,8.60
2022-12-05T07:13:50.470Z,9.50
2022-12-05T07:14:51.501Z,9.00
2022-12-05T07:15:50.437Z,7.20
2022-12-05T07:16:50.512Z,6.20
2022-12-05T07:17:50.413Z,7.10
2022-12-05T07:18:50.406Z,6.40
2022-12-05T07:19:50.390Z,7.00
2022-12-05T07:21:11.172Z,8.10
2022-12-05T07:21:52.371Z,7.80
2022-12-05T07:22:50.311Z,7.10
2022-12-05T07:23:50.310Z,7.40
2022-12-05T07:24:50.321Z,7.50
2022-12-05T07:25:50.278Z,7.60
2022-12-05T07:26:50.349Z,7.10
2022-12-05T07:27:50.266Z,7.00
2022-12-05T07:28:50.230Z,7.50
2022-12-05T07:29:50.236Z,8.70
2022-12-05T07:30:50.215Z,7.00
2022-12-05T07:31:50.213Z,7.80
2022-12-05T07:32:50.167Z,8.60
2022-12-05T07:33:50.150Z,8.00
2022-12-05T07:34:55.004Z,7.80
2022-12-05T07:35:52.149Z,16.90
2022-12-05T07:36:50.083Z,9.00
2022-12-05T07:37:50.060Z,9.60
2022-12-05T07:38:50.038Z,9.20
2022-12-05T07:39:50.083Z,9.00
2022-12-05T07:40:50.000Z,9.20
2022-12-05T07:41:49.996Z,8.60
2022-12-05T07:42:49.980Z,8.40
2022-12-05T07:43:49.952Z,8.90
2022-12-05T07:44:50.059Z,9.20
2022-12-05T07:45:51.010Z,7.50
2022-12-05T07:46:49.912Z,7.30
2022-12-05T07:47:49.979Z,8.20
2022-12-05T07:48:49.890Z,8.70
2022-12-05T07:49:49.935Z,7.40
2022-12-05T07:50:49.883Z,8.00
2022-12-05T07:51:49.870Z,8.50
2022-12-05T07:52:49.823Z,6.40
2022-12-05T07:53:49.782Z,7.00
2022-12-05T07:54:49.848Z,8.00
2022-12-05T07:55:49.747Z,8.50
2022-12-05T07:56:49.734Z,8.90
2022-12-05T07:57:49.723Z,12.60
2022-12-05T07:58:49.715Z,10.80
2022-12-05T07:59:49.703Z,12.20
2022-12-05T08:00:49.700Z,11.90
2022-12-05T08:01:49.950Z,11.00
2022-12-05T08:02:49.662Z,9.60
2022-12-05T08:03:49.621Z,9.70
2022-12-05T08:04:49.634Z,11.20
2022-12-05T08:05:49.592Z,11.40
2022-12-05T08:06:49.607Z,10.10
2022-12-05T08:07:49.599Z,10.90
2022-12-05T08:08:49.544Z,9.50
2022-12-05T08:09:49.556Z,9.50
2022-12-05T08:10:49.517Z,7.50
2022-12-05T08:11:52.637Z,14.20
2022-12-05T08:12:50.458Z,12.70
2022-12-05T08:13:49.442Z,10.30
2022-12-05T08:14:49.455Z,11.50
2022-12-05T08:15:49.402Z,10.30
2022-12-05T08:16:49.451Z,11.80
2022-12-05T08:17:49.375Z,10.70
2022-12-05T08:18:49.363Z,12.30
2022-12-05T08:19:49.458Z,10.50
2022-12-05T08:20:49.324Z,9.80
2022-12-05T08:21:49.304Z,15.10
2022-12-05T08:22:49.287Z,13.60
2022-12-05T08:23:49.287Z,13.40
2022-12-05T08:24:54.691Z,16.70
2022-12-05T08:25:51.235Z,16.00
2022-12-05T08:26:49.291Z,15.10
2022-12-05T08:27:49.207Z,16.90
2022-12-05T08:28:49.179Z,15.10
2022-12-05T08:29:49.224Z,13.70
2022-12-05T08:30:49.229Z,39.60
2022-12-05T08:31:49.142Z,43.90
2022-12-05T08:32:49.117Z,28.30
2022-12-05T08:33:50.408Z,22.50
2022-12-05T08:34:49.110Z,16.30
2022-12-05T08:35:49.069Z,15.90
2022-12-05T08:36:49.046Z,14.40
2022-12-05T08:37:49.036Z,14.90
2022-12-05T08:38:49.014Z,12.40
2022-12-05T08:39:48.994Z,13.40
2022-12-05T08:40:49.007Z,9.10
2022-12-05T08:41:48.959Z,14.80
2022-12-05T08:42:48.958Z,14.30
2022-12-05T08:43:48.925Z,14.00
2022-12-05T08:44:48.948Z,14.00
2022-12-05T08:45:48.906Z,11.30
2022-12-05T08:46:48.912Z,12.70
2022-12-05T08:47:48.864Z,18.90
2022-12-05T08:48:48.856Z,14.80
2022-12-05T08:49:48.824Z,26.70
2022-12-05T08:50:48.847Z,108.80
2022-12-05T08:51:48.821Z,60.50
2022-12-05T08:52:48.809Z,45.10
2022-12-05T08:53:48.788Z,44.80
2022-12-05T08:54:48.794Z,10.90
2022-12-05T08:55:48.719Z,12.60
2022-12-05T08:56:48.700Z,11.50
2022-12-05T08:57:48.682Z,12.00
2022-12-05T08:58:48.683Z,12.60
2022-12-05T08:59:48.705Z,10.30
2022-12-05T09:00:48.675Z,11.60
2022-12-05T09:01:48.648Z,12.60
2022-12-05T09:02:48.652Z,12.20
2022-12-05T09:03:48.602Z,12.50
2022-12-05T09:04:53.675Z,13.30
2022-12-05T09:05:54.733Z,10.90
2022-12-05T09:06:48.530Z,11.70
2022-12-05T09:07:48.580Z,12.70
2022-12-05T09:08:48.500Z,11.50
2022-12-05T09:09:48.485Z,12.20
2022-12-05T09:10:48.541Z,12.30
2022-12-05T09:11:48.448Z,12.70
2022-12-05T09:12:48.414Z,12.80
2022-12-05T09:13:49.410Z,13.10
2022-12-05T09:14:48.422Z,9.70
2022-12-05T09:15:48.418Z,11.30
2022-12-05T09:16:48.368Z,9.80
2022-12-05T09:17:48.339Z,9.20
2022-12-05T09:18:48.333Z,10.10
2022-12-05T09:19:48.304Z,11.90
2022-12-05T09:20:48.321Z,9.70
2022-12-05T09:21:48.271Z,7.50
2022-12-05T09:22:48.266Z,8.40
2022-12-05T09:23:48.241Z,6.70
2022-12-05T09:24:48.259Z,7.70
2022-12-05T09:25:48.214Z,8.90
2022-12-05T09:26:48.198Z,9.10
2022-12-05T09:27:48.172Z,8.30
2022-12-05T09:28:48.156Z,8.60
2022-12-05T09:29:48.130Z,9.60
2022-12-05T09:30:48.216Z,11.00
2022-12-05T09:31:48.103Z,9.20
2022-12-05T09:32:48.129Z,9.30
2022-12-05T09:33:48.072Z,9.50
2022-12-05T09:34:48.044Z,9.80
2022-12-05T09:35:48.153Z,7.80
2022-12-05T09:36:48.027Z,8.70
2022-12-05T09:37:48.009Z,9.60
2022-12-05T09:38:47.981Z,8.10
2022-12-05T09:39:47.968Z,9.60
2022-12-05T09:40:47.979Z,9.60
2022-12-05T09:41:47.938Z,10.30
2022-12-05T09:42:47.927Z,12.00
2022-12-05T09:43:47.895Z,10.10
2022-12-05T09:44:47.892Z,12.60
2022-12-05T09:45:47.899Z,11.70
2022-12-05T09:46:47.884Z,12.50
2022-12-05T09:47:47.834Z,10.30
2022-12-05T09:48:47.829Z,11.50
2022-12-05T09:49:47.804Z,13.10
2022-12-05T09:50:47.815Z,14.10
2022-12-05T09:51:53.693Z,12.10
2022-12-05T09:52:49.750Z,10.70
2022-12-05T09:53:47.730Z,10.30
2022-12-05T09:54:47.715Z,9.40
2022-12-05T09:55:47.734Z,11.40
2022-12-05T09:56:47.679Z,10.80
2022-12-05T09:57:47.661Z,11.60
2022-12-05T09:58:49.444Z,12.40
2022-12-05T09:59:48.021Z,10.00
2022-12-05T10:00:47.668Z,10.50
2022-12-05T10:01:47.604Z,14.70
2022-12-05T10:02:47.572Z,12.20
2022-12-05T10:03:47.571Z,12.10
2022-12-05T10:04:47.599Z,11.80
2022-12-05T10:05:47.573Z,12.70
2022-12-05T10:06:47.516Z,9.80
2022-12-05T10:07:47.544Z,8.80
2022-12-05T10:08:47.478Z,12.80
2022-12-05T10:09:47.461Z,13.00
2022-12-05T10:10:47.473Z,11.60
2022-12-05T10:11:47.451Z,14.00
2022-12-05T10:12:47.401Z,11.70
2022-12-05T10:13:47.389Z,12.80
2022-12-05T10:14:47.370Z,11.30
2022-12-05T10:15:47.419Z,13.10
2022-12-05T10:16:48.422Z,12.40
2022-12-05T10:17:47.324Z,13.30
2022-12-05T10:18:47.315Z,12.20
2022-12-05T10:19:47.282Z,12.30
2022-12-05T10:20:47.309Z,12.40
2022-12-05T10:21:47.253Z,10.80
2022-12-05T10:22:47.240Z,11.40
2022-12-05T10:23:57.621Z,12.30
2022-12-05T10:24:49.213Z,12.50
2022-12-05T10:25:47.220Z,13.60
2022-12-05T10:26:47.176Z,13.90
2022-12-05T10:27:47.152Z,10.60
2022-12-05T10:28:47.143Z,10.70
2022-12-05T10:29:47.134Z,11.30
2022-12-05T10:30:47.206Z,11.20
2022-12-05T10:31:47.180Z,9.10
2022-12-05T10:32:48.362Z,8.70
2022-12-05T10:33:48.056Z,8.90
2022-12-05T10:34:47.062Z,8.40
2022-12-05T10:35:47.055Z,8.20
2022-12-05T10:36:47.001Z,9.30
2022-12-05T10:37:46.987Z,7.60
2022-12-05T10:38:46.973Z,8.30
2022-12-05T10:39:46.954Z,8.20
2022-12-05T10:40:47.018Z,8.10
2022-12-05T10:41:46.925Z,8.80
2022-12-05T10:42:46.902Z,8.10
2022-12-05T10:43:46.882Z,7.90
2022-12-05T10:44:46.880Z,8.10
2022-12-05T10:45:46.892Z,7.40
2022-12-05T10:46:46.898Z,8.60
2022-12-05T10:47:46.812Z,7.80
2022-12-05T10:48:46.806Z,7.90
2022-12-05T10:49:47.792Z,8.60
2022-12-05T10:50:46.791Z,7.00
2022-12-05T10:51:46.750Z,6.90
2022-12-05T10:52:46.751Z,6.80
2022-12-05T10:53:46.711Z,7.20
2022-12-05T10:54:46.712Z,7.30
2022-12-05T10:56:00.341Z,7.40
2022-12-05T10:56:48.663Z,7.40
2022-12-05T10:57:46.652Z,7.20
2022-12-05T10:58:46.622Z,8.30
2022-12-05T10:59:46.628Z,7.90
2022-12-05T11:00:46.630Z,6.60
2022-12-05T11:01:46.618Z,7.30
2022-12-05T11:02:49.350Z,7.90
2022-12-05T11:03:46.553Z,7.80
2022-12-05T11:04:46.583Z,8.00
2022-12-05T11:05:46.586Z,8.40
2022-12-05T11:06:46.510Z,8.10
2022-12-05T11:07:46.494Z,8.90
2022-12-05T11:09:48.450Z,11.70
2022-12-05T11:10:46.488Z,12.00
2022-12-05T11:11:46.406Z,12.40
2022-12-05T11:12:46.435Z,13.20
2022-12-05T11:13:46.384Z,12.00
2022-12-05T11:14:46.464Z,13.20
2022-12-05T11:15:50.734Z,14.30
2022-12-05T11:16:47.350Z,14.80
2022-12-05T11:17:46.310Z,14.20
2022-12-05T11:18:46.316Z,14.40
2022-12-05T11:19:46.278Z,15.30
2022-12-05T11:20:46.283Z,12.60
2022-12-05T11:21:46.233Z,14.10
2022-12-05T11:22:48.839Z,14.80
2022-12-05T11:23:47.203Z,14.60
2022-12-05T11:24:46.189Z,15.40
2022-12-05T11:25:46.194Z,15.40
2022-12-05T11:26:46.146Z,16.40
2022-12-05T11:27:46.164Z,15.10
2022-12-05T11:28:46.107Z,14.40
2022-12-05T11:29:46.093Z,11.90
2022-12-05T11:30:46.120Z,12.50
2022-12-05T11:31:46.183Z,14.20
2022-12-05T11:32:46.090Z,15.50
2022-12-05T11:33:46.045Z,14.70
2022-12-05T11:34:46.013Z,15.90
2022-12-05T11:35:46.019Z,14.30
2022-12-05T11:36:45.972Z,13.40
2022-12-05T11:37:45.968Z,11.80
2022-12-05T11:38:45.941Z,10.80
2022-12-05T11:39:45.928Z,13.40
2022-12-05T11:40:45.943Z,14.20
2022-12-05T11:41:45.889Z,15.70
2022-12-05T11:42:45.865Z,13.70
2022-12-05T11:43:45.857Z,15.60
2022-12-05T11:44:45.850Z,12.90
2022-12-05T11:45:45.858Z,13.20
2022-12-05T11:46:45.842Z,13.00
2022-12-05T11:47:45.780Z,11.30
2022-12-05T11:48:45.762Z,13.10
2022-12-05T11:49:45.746Z,12.50
2022-12-05T11:50:45.761Z,12.20
2022-12-05T11:51:45.714Z,10.70
2022-12-05T11:52:45.703Z,11.70
2022-12-05T11:53:45.678Z,12.40
2022-12-05T11:55:15.179Z,13.10
2022-12-05T11:55:47.677Z,13.10
2022-12-05T11:56:45.629Z,15.40
2022-12-05T11:57:51.762Z,16.50
2022-12-05T11:58:47.605Z,19.20
2022-12-05T11:59:45.578Z,21.90
2022-12-05T12:00:45.558Z,18.70
2022-12-05T12:01:45.651Z,18.80
2022-12-05T12:02:45.664Z,20.70
2022-12-05T12:03:45.591Z,14.90
2022-12-05T12:04:45.497Z,21.50
2022-12-05T12:05:45.492Z,20.90
2022-12-05T12:06:45.496Z,19.80
2022-12-05T12:07:45.511Z,14.80
2022-12-05T12:08:45.429Z,21.80
2022-12-05T12:09:45.412Z,24.40
2022-12-05T12:10:45.417Z,22.60
2022-12-05T12:11:45.401Z,17.80
2022-12-05T12:12:45.364Z,19.20
2022-12-05T12:13:45.339Z,19.00
2022-12-05T12:15:17.701Z,14.40
2022-12-05T12:15:45.315Z,13.80
2022-12-05T12:16:45.396Z,19.40
2022-12-05T12:17:45.271Z,14.90
2022-12-05T12:18:45.268Z,13.60
2022-12-05T12:19:45.261Z,15.40
2022-12-05T12:20:45.275Z,15.10
2022-12-05T12:21:45.232Z,13.00
2022-12-05T12:22:45.196Z,12.70
2022-12-05T12:23:45.188Z,14.80
2022-12-05T12:24:45.202Z,13.10
2022-12-05T12:25:45.167Z,12.60
2022-12-05T12:26:45.161Z,13.10
2022-12-05T12:27:45.123Z,12.70
2022-12-05T12:28:45.131Z,13.50
2022-12-05T12:29:45.083Z,12.70
2022-12-05T12:30:45.105Z,13.60
2022-12-05T12:31:45.165Z,11.50
2022-12-05T12:32:45.099Z,11.80
2022-12-05T12:33:45.030Z,11.60
2022-12-05T12:34:44.985Z,12.00
2022-12-05T12:35:44.982Z,9.20
2022-12-05T12:36:44.998Z,11.60
2022-12-05T12:37:44.948Z,11.50
2022-12-05T12:38:50.996Z,12.60
2022-12-05T12:39:46.944Z,13.50
2022-12-05T12:40:44.907Z,12.20
2022-12-05T12:41:44.921Z,11.50
2022-12-05T12:42:44.865Z,12.90
2022-12-05T12:43:53.765Z,9.60
2022-12-05T12:44:46.836Z,12.40
2022-12-05T12:45:44.851Z,11.50
2022-12-05T12:46:44.962Z,11.60
2022-12-05T12:47:44.768Z,10.60
2022-12-05T12:48:44.772Z,10.90
2022-12-05T12:49:44.760Z,10.80
2022-12-05T12:50:44.720Z,11.70
2022-12-05T12:51:44.732Z,11.30
2022-12-05T12:52:44.687Z,12.50
2022-12-05T12:53:44.688Z,11.20
2022-12-05T12:55:03.314Z,11.50
2022-12-05T12:55:46.648Z,11.90
2022-12-05T12:56:44.657Z,11.70
2022-12-05T12:57:44.614Z,11.40
2022-12-05T12:58:44.596Z,12.60